createdAt,value
2019-03-24T00:00:12.006Z,79.77
2019-03-24T00:02:40.863Z,76.40
2019-03-24T00:05:09.748Z,64.87
2019-03-24T00:07:38.660Z,55.43
2019-03-24T00:10:08.099Z,59.00
2019-03-24T00:12:36.956Z,59.80
2019-03-24T00:15:07.736Z,64.87
2019-03-24T00:17:36.585Z,73.80
2019-03-24T00:20:07.014Z,78.80
2019-03-24T00:22:35.933Z,68.77
2019-03-24T00:25:06.588Z,63.63
2019-03-24T00:27:35.456Z,62.77
2019-03-24T00:30:07.608Z,63.93
2019-03-24T00:32:36.465Z,61.07
2019-03-24T00:35:07.466Z,58.30
2019-03-24T00:37:36.948Z,51.43
2019-03-24T00:40:07.603Z,60.80
2019-03-24T00:42:36.477Z,59.63
2019-03-24T00:45:10.582Z,60.27
2019-03-24T00:47:39.389Z,54.57
2019-03-24T00:50:08.444Z,54.27
2019-03-24T00:52:50.325Z,56.13
2019-03-24T00:55:19.213Z,54.87
2019-03-24T00:57:48.124Z,51.90
2019-03-24T01:00:17.558Z,54.70
2019-03-24T01:02:56.425Z,52.50
2019-03-24T01:05:25.313Z,55.87
2019-03-24T01:07:54.204Z,59.60
2019-03-24T01:10:23.049Z,62.07
2019-03-24T01:12:51.976Z,59.80
2019-03-24T01:15:20.844Z,57.23
2019-03-24T01:17:49.713Z,56.27
2019-03-24T01:20:18.617Z,59.37
2019-03-24T01:22:47.467Z,59.20
2019-03-24T01:25:16.344Z,58.83
2019-03-24T01:27:45.247Z,57.43
2019-03-24T01:30:14.511Z,59.20
2019-03-24T01:32:43.370Z,56.13
2019-03-24T01:35:12.394Z,56.50
2019-03-24T01:37:42.095Z,53.40
2019-03-24T01:40:11.148Z,59.13
2019-03-24T01:42:40.046Z,57.67
2019-03-24T01:45:10.904Z,53.83
2019-03-24T01:47:39.753Z,59.37
2019-03-24T01:50:09.567Z,59.03
2019-03-24T01:52:38.416Z,62.37
2019-03-24T01:55:07.482Z,58.00
2019-03-24T01:57:36.403Z,56.43
2019-03-24T02:00:09.035Z,50.07
2019-03-24T02:02:37.897Z,47.20
2019-03-24T02:05:08.372Z,47.47
2019-03-24T02:07:37.232Z,43.27
2019-03-24T02:10:08.091Z,41.27
2019-03-24T02:12:37.090Z,40.83
2019-03-24T02:15:10.023Z,40.13
2019-03-24T02:17:38.863Z,42.43
2019-03-24T02:20:08.364Z,45.67
2019-03-24T02:22:37.218Z,46.83
2019-03-24T02:25:09.159Z,48.97
2019-03-24T02:27:38.102Z,48.47
2019-03-24T02:30:08.849Z,51.07
2019-03-24T02:32:37.738Z,52.20
2019-03-24T02:35:07.560Z,58.73
2019-03-24T02:37:36.395Z,50.80
2019-03-24T02:40:07.350Z,44.87
2019-03-24T02:42:36.218Z,47.17
2019-03-24T02:45:06.974Z,45.23
2019-03-24T02:47:35.830Z,46.77
2019-03-24T02:50:06.470Z,49.63
2019-03-24T02:52:35.322Z,48.60
2019-03-24T02:55:07.979Z,46.47
2019-03-24T02:57:36.885Z,45.03
2019-03-24T03:00:10.406Z,43.97
2019-03-24T03:02:39.274Z,44.67
2019-03-24T03:05:09.006Z,49.57
2019-03-24T03:07:37.864Z,61.53
2019-03-24T03:10:10.130Z,58.90
2019-03-24T03:12:39.026Z,69.87
2019-03-24T03:15:09.078Z,58.23
2019-03-24T03:17:37.912Z,56.63
2019-03-24T03:20:07.629Z,50.87
2019-03-24T03:22:36.489Z,50.27
2019-03-24T03:25:08.763Z,49.20
2019-03-24T03:27:37.663Z,48.90
2019-03-24T03:30:08.593Z,46.00
2019-03-24T03:32:37.436Z,50.70
2019-03-24T03:35:08.082Z,48.83
2019-03-24T03:37:36.919Z,47.07
2019-03-24T03:40:10.261Z,47.37
2019-03-24T03:42:40.654Z,49.07
2019-03-24T03:45:11.297Z,48.60
2019-03-24T03:47:40.588Z,51.37
2019-03-24T03:50:09.754Z,47.67
2019-03-24T03:52:38.605Z,48.33
2019-03-24T03:55:07.651Z,52.43
2019-03-24T03:57:36.580Z,47.70
2019-03-24T04:00:08.719Z,46.07
2019-03-24T04:02:37.559Z,49.77
2019-03-24T04:05:07.497Z,47.73
2019-03-24T04:07:36.358Z,50.93
2019-03-24T04:10:06.025Z,45.00
2019-03-24T04:12:34.972Z,44.83
2019-03-24T04:15:04.882Z,45.07
2019-03-24T04:17:33.749Z,44.57
2019-03-24T04:20:02.629Z,42.47
2019-03-24T04:22:31.460Z,41.53
2019-03-24T04:25:00.435Z,44.30
2019-03-24T04:27:29.527Z,44.20
2019-03-24T04:29:58.375Z,41.47
2019-03-24T04:32:27.215Z,38.40
2019-03-24T04:34:56.122Z,40.67
2019-03-24T04:37:24.974Z,45.13
2019-03-24T04:39:53.863Z,43.30
2019-03-24T04:42:22.749Z,42.77
2019-03-24T04:44:52.476Z,42.30
2019-03-24T04:47:21.336Z,44.33
2019-03-24T04:49:50.254Z,46.80
2019-03-24T04:52:19.099Z,43.73
2019-03-24T04:54:47.955Z,47.47
2019-03-24T04:57:16.960Z,46.77
2019-03-24T04:59:45.800Z,48.13
2019-03-24T05:02:14.672Z,46.03
2019-03-24T05:04:43.574Z,49.17
2019-03-24T05:07:12.430Z,49.57
2019-03-24T05:09:42.278Z,50.17
2019-03-24T05:12:11.209Z,51.77
2019-03-24T05:14:40.056Z,49.67
2019-03-24T05:17:08.911Z,49.63
2019-03-24T05:19:37.799Z,50.77
2019-03-24T05:22:06.656Z,48.57
2019-03-24T05:24:35.533Z,49.87
2019-03-24T05:27:04.422Z,54.17
2019-03-24T05:29:33.282Z,52.93
2019-03-24T05:32:02.135Z,50.33
2019-03-24T05:34:31.082Z,49.40
2019-03-24T05:36:59.936Z,47.73
2019-03-24T05:39:28.793Z,47.77
2019-03-24T05:41:57.669Z,49.57
2019-03-24T05:44:26.518Z,49.87
2019-03-24T05:46:56.190Z,53.00
2019-03-24T05:49:25.153Z,55.63
2019-03-24T05:51:53.950Z,58.67
2019-03-24T05:54:22.768Z,59.70
2019-03-24T05:56:51.695Z,56.10
2019-03-24T05:59:20.563Z,62.80
2019-03-24T06:01:49.429Z,71.00
2019-03-24T06:04:18.325Z,68.47
2019-03-24T06:06:47.200Z,68.87
2019-03-24T06:09:16.036Z,66.50
2019-03-24T06:11:44.941Z,63.60
2019-03-24T06:14:13.801Z,68.77
2019-03-24T06:16:42.648Z,65.17
2019-03-24T06:19:11.657Z,65.10
2019-03-24T06:21:40.514Z,63.87
2019-03-24T06:24:09.376Z,61.70
2019-03-24T06:26:38.287Z,62.17
2019-03-24T06:29:08.621Z,63.27
2019-03-24T06:31:37.525Z,63.57
2019-03-24T06:34:06.433Z,63.50
2019-03-24T06:36:35.332Z,57.37
2019-03-24T06:39:05.566Z,55.27
2019-03-24T06:41:34.754Z,55.97
2019-03-24T06:44:03.600Z,54.03
2019-03-24T06:46:32.450Z,49.17
2019-03-24T06:49:01.386Z,50.63
2019-03-24T06:51:30.268Z,48.37
2019-03-24T06:53:59.104Z,50.47
2019-03-24T06:56:28.000Z,52.00
2019-03-24T06:58:56.893Z,50.43
2019-03-24T07:01:25.738Z,47.73
2019-03-24T07:03:54.656Z,41.40
2019-03-24T07:06:23.494Z,40.70
2019-03-24T07:08:52.359Z,40.57
2019-03-24T07:11:21.262Z,44.73
2019-03-24T07:13:50.117Z,45.30
2019-03-24T07:16:18.966Z,44.00
2019-03-24T07:18:47.896Z,39.97
2019-03-24T07:21:16.756Z,37.77
2019-03-24T07:23:45.614Z,37.38
2019-03-24T07:26:14.554Z,30.67
2019-03-24T07:28:43.392Z,41.28
2019-03-24T07:31:12.226Z,48.03
2019-03-24T07:33:41.150Z,66.13
2019-03-24T07:36:09.999Z,57.67
2019-03-24T07:38:38.870Z,65.97
2019-03-24T07:41:07.770Z,62.23
2019-03-24T07:43:36.624Z,47.88
2019-03-24T07:46:05.489Z,53.52
2019-03-24T07:48:34.426Z,49.98
2019-03-24T07:51:03.314Z,40.08
2019-03-24T07:53:32.191Z,44.77
2019-03-24T07:56:02.253Z,46.60
2019-03-24T07:58:31.157Z,39.57
2019-03-24T08:01:00.251Z,50.10
2019-03-24T08:03:29.090Z,50.40
2019-03-24T08:05:57.915Z,40.40
2019-03-24T08:08:26.763Z,48.55
2019-03-24T08:10:55.706Z,41.00
2019-03-24T08:13:24.574Z,44.27
2019-03-24T08:15:53.486Z,44.00
2019-03-24T08:18:30.021Z,43.20
2019-03-24T08:20:52.862Z,41.60
2019-03-24T08:23:21.706Z,37.67
2019-03-24T08:25:50.624Z,35.70
2019-03-24T08:28:19.493Z,36.57
2019-03-24T08:30:48.341Z,34.23
2019-03-24T08:33:17.589Z,31.47
2019-03-24T08:35:46.463Z,32.67
2019-03-24T08:38:15.310Z,34.33
2019-03-24T08:40:44.327Z,33.50
2019-03-24T08:43:13.175Z,28.77
2019-03-24T08:45:42.043Z,28.87
2019-03-24T08:48:10.946Z,23.90
2019-03-24T08:50:39.785Z,27.67
2019-03-24T08:53:08.662Z,26.50
2019-03-24T08:55:37.563Z,25.33
2019-03-24T08:58:06.435Z,28.60
2019-03-24T09:00:35.287Z,25.93
2019-03-24T09:03:04.245Z,23.83
2019-03-24T09:05:33.787Z,24.95
2019-03-24T09:08:02.732Z,26.30
2019-03-24T09:10:31.625Z,24.73
2019-03-24T09:13:00.475Z,24.20
2019-03-24T09:15:29.332Z,25.07
2019-03-24T09:17:58.261Z,27.90
2019-03-24T09:20:27.497Z,23.57
2019-03-24T09:22:56.359Z,19.13
2019-03-24T09:25:25.353Z,20.73
2019-03-24T09:27:54.246Z,17.60
2019-03-24T09:30:31.339Z,21.37
2019-03-24T09:33:00.222Z,21.37
2019-03-24T09:35:29.174Z,22.33
2019-03-24T09:37:58.301Z,19.17
2019-03-24T09:40:32.348Z,21.07
2019-03-24T09:43:02.214Z,19.87
2019-03-24T09:45:31.809Z,18.40
2019-03-24T09:48:01.064Z,19.37
2019-03-24T09:50:29.921Z,16.07
2019-03-24T09:52:58.851Z,20.67
2019-03-24T09:55:27.733Z,16.95
2019-03-24T09:57:56.580Z,18.57
2019-03-24T10:00:25.472Z,15.70
2019-03-24T10:02:54.331Z,17.70
2019-03-24T10:05:23.202Z,15.10
2019-03-24T10:07:52.117Z,14.50
2019-03-24T10:10:20.967Z,14.93
2019-03-24T10:12:49.818Z,15.32
2019-03-24T10:15:18.752Z,17.70
2019-03-24T10:17:47.619Z,15.38
2019-03-24T10:20:16.501Z,18.90
2019-03-24T10:22:45.507Z,17.87
2019-03-24T10:25:14.304Z,20.63
2019-03-24T10:27:43.114Z,19.57
2019-03-24T10:30:12.118Z,19.67
2019-03-24T10:32:40.995Z,18.70
2019-03-24T10:35:09.963Z,19.27
2019-03-24T10:37:38.888Z,19.47
2019-03-24T10:40:08.147Z,19.20
2019-03-24T10:42:37.500Z,19.23
2019-03-24T10:45:07.719Z,20.07
2019-03-24T10:47:36.568Z,17.53
2019-03-24T10:50:10.860Z,17.07
2019-03-24T10:52:39.826Z,16.37
2019-03-24T10:55:11.925Z,16.93
2019-03-24T10:57:41.644Z,16.37
2019-03-24T11:00:13.039Z,16.87
2019-03-24T11:02:41.878Z,15.07
2019-03-24T11:05:10.930Z,14.43
2019-03-24T11:07:39.945Z,12.60
2019-03-24T11:10:09.807Z,14.90
2019-03-24T11:12:38.655Z,15.73
2019-03-24T11:15:09.533Z,16.03
2019-03-24T11:17:38.506Z,16.00
2019-03-24T11:20:08.370Z,15.67
2019-03-24T11:22:37.420Z,16.10
2019-03-24T11:25:08.806Z,14.97
2019-03-24T11:27:38.064Z,12.90
2019-03-24T11:30:10.039Z,10.17
2019-03-24T11:32:39.275Z,9.10
2019-03-24T11:35:08.214Z,7.83
2019-03-24T11:37:37.110Z,7.40
2019-03-24T11:40:07.932Z,6.93
2019-03-24T11:42:36.795Z,7.47
2019-03-24T11:45:07.814Z,8.20
2019-03-24T11:47:36.617Z,6.90
2019-03-24T11:50:09.179Z,6.60
2019-03-24T11:52:38.182Z,5.67
2019-03-24T11:55:08.796Z,6.17
2019-03-24T11:57:37.662Z,6.17
2019-03-24T12:00:12.319Z,7.57
2019-03-24T12:02:41.171Z,5.87
2019-03-24T12:05:10.130Z,6.53
2019-03-24T12:07:39.048Z,6.83
2019-03-24T12:10:09.803Z,6.63
2019-03-24T12:12:38.641Z,6.43
2019-03-24T12:15:08.535Z,6.07
2019-03-24T12:17:37.390Z,6.10
2019-03-24T12:20:08.749Z,6.13
2019-03-24T12:22:37.624Z,5.23
2019-03-24T12:25:07.201Z,5.50
2019-03-24T12:27:36.034Z,6.10
2019-03-24T12:30:09.515Z,6.77
2019-03-24T12:32:38.478Z,5.73
2019-03-24T12:35:08.933Z,4.23
2019-03-24T12:37:37.820Z,4.00
2019-03-24T12:40:08.774Z,3.90
2019-03-24T12:42:37.820Z,4.10
2019-03-24T12:45:09.036Z,3.47
2019-03-24T12:47:37.975Z,4.27
2019-03-24T12:50:11.541Z,4.33
2019-03-24T12:52:40.425Z,4.33
2019-03-24T12:55:09.991Z,4.50
2019-03-24T12:57:38.832Z,4.50
2019-03-24T13:00:09.854Z,4.20
2019-03-24T13:02:38.714Z,4.20
2019-03-24T13:05:10.653Z,4.70
2019-03-24T13:07:39.564Z,4.70
2019-03-24T13:10:08.725Z,3.87
2019-03-24T13:12:37.566Z,4.37
2019-03-24T13:15:10.234Z,3.87
2019-03-24T13:17:39.090Z,3.97
2019-03-24T13:20:19.478Z,4.20
2019-03-24T13:22:39.600Z,3.87
2019-03-24T13:25:08.747Z,4.10
2019-03-24T13:27:37.595Z,4.47
2019-03-24T13:30:07.193Z,5.10
2019-03-24T13:32:36.055Z,4.60
2019-03-24T13:35:05.486Z,3.70
2019-03-24T13:37:34.412Z,3.93
2019-03-24T13:40:03.568Z,3.60
2019-03-24T13:42:32.419Z,2.63
2019-03-24T13:45:01.328Z,4.40
2019-03-24T13:47:31.171Z,3.17
2019-03-24T13:50:00.128Z,3.60
2019-03-24T13:52:29.064Z,4.00
2019-03-24T13:54:57.900Z,4.57
2019-03-24T13:57:26.824Z,5.67
2019-03-24T13:59:55.646Z,3.50
2019-03-24T14:02:24.485Z,3.17
2019-03-24T14:04:54.270Z,3.33
2019-03-24T14:07:23.108Z,4.70
2019-03-24T14:09:51.962Z,3.57
2019-03-24T14:12:20.847Z,3.53
2019-03-24T14:14:49.682Z,3.50
2019-03-24T14:17:18.510Z,3.90
2019-03-24T14:19:47.849Z,4.10
2019-03-24T14:22:16.696Z,5.30
2019-03-24T14:24:45.535Z,7.93
2019-03-24T14:27:14.430Z,4.23
2019-03-24T14:29:43.277Z,4.33
2019-03-24T14:32:12.119Z,4.20
2019-03-24T14:34:40.998Z,4.33
2019-03-24T14:37:11.707Z,3.90
2019-03-24T14:39:40.335Z,4.43
2019-03-24T14:42:09.269Z,4.00
2019-03-24T14:44:38.095Z,3.80
2019-03-24T14:47:06.892Z,4.70
2019-03-24T14:49:35.748Z,4.53
2019-03-24T14:52:04.578Z,5.37
2019-03-24T14:54:33.415Z,5.63
2019-03-24T14:57:02.323Z,5.83
2019-03-24T14:59:31.167Z,4.37
2019-03-24T15:01:59.995Z,4.97
2019-03-24T15:04:28.982Z,7.23
2019-03-24T15:06:57.819Z,6.87
2019-03-24T15:09:26.640Z,7.43
2019-03-24T15:11:55.517Z,8.60
2019-03-24T15:14:24.363Z,6.57
2019-03-24T15:16:53.194Z,6.60
2019-03-24T15:19:22.089Z,6.90
2019-03-24T15:21:50.940Z,7.33
2019-03-24T15:24:19.782Z,8.00
2019-03-24T15:26:48.699Z,9.53
2019-03-24T15:29:17.548Z,8.77
2019-03-24T15:31:46.390Z,8.33
2019-03-24T15:34:15.303Z,11.20
2019-03-24T15:36:44.153Z,8.33
2019-03-24T15:39:12.986Z,8.17
2019-03-24T15:41:41.884Z,7.23
2019-03-24T15:44:10.718Z,7.67
2019-03-24T15:46:40.521Z,7.63
2019-03-24T15:49:09.468Z,14.47
2019-03-24T15:51:38.319Z,13.10
2019-03-24T15:54:07.187Z,12.83
2019-03-24T15:56:36.057Z,17.73
2019-03-24T15:59:04.912Z,21.30
2019-03-24T16:01:33.748Z,24.50
2019-03-24T16:04:02.673Z,25.43
2019-03-24T16:06:31.518Z,28.40
2019-03-24T16:09:00.357Z,27.67
2019-03-24T16:11:29.287Z,27.07
2019-03-24T16:13:58.126Z,28.33
2019-03-24T16:16:26.971Z,25.93
2019-03-24T16:18:55.865Z,25.97
2019-03-24T16:21:27.984Z,25.97
2019-03-24T16:23:55.239Z,26.90
2019-03-24T16:26:24.142Z,27.93
2019-03-24T16:28:52.981Z,37.73
2019-03-24T16:31:21.824Z,66.20
2019-03-24T16:33:50.837Z,127.03
2019-03-24T16:36:19.710Z,78.67
2019-03-24T16:38:49.323Z,93.97
2019-03-24T16:41:18.379Z,79.60
2019-03-24T16:43:47.227Z,89.83
2019-03-24T16:46:16.081Z,90.07
2019-03-24T16:48:44.963Z,80.30
2019-03-24T16:51:13.810Z,73.57
2019-03-24T16:53:42.671Z,66.37
2019-03-24T16:56:11.800Z,84.60
2019-03-24T16:58:40.660Z,89.93
2019-03-24T17:01:09.527Z,89.40
2019-03-24T17:03:38.416Z,95.40
2019-03-24T17:06:07.264Z,79.10
2019-03-24T17:08:36.125Z,72.10
2019-03-24T17:11:05.869Z,75.03
2019-03-24T17:13:34.728Z,83.93
2019-03-24T17:16:03.566Z,112.93
2019-03-24T17:18:32.485Z,134.17
2019-03-24T17:21:01.355Z,120.13
2019-03-24T17:23:30.528Z,155.07
2019-03-24T17:26:21.523Z,158.17
2019-03-24T17:28:50.688Z,156.80
2019-03-24T17:31:19.764Z,167.30
2019-03-24T17:33:48.889Z,148.97
2019-03-24T17:36:17.744Z,162.27
2019-03-24T17:38:46.581Z,151.90
2019-03-24T17:41:15.540Z,165.63
2019-03-24T17:43:44.381Z,176.63
2019-03-24T17:46:13.289Z,159.93
2019-03-24T17:48:42.227Z,160.40
2019-03-24T17:51:11.092Z,157.30
2019-03-24T17:53:39.970Z,134.50
2019-03-24T17:56:08.973Z,74.20
2019-03-24T17:58:37.793Z,111.30
2019-03-24T18:01:06.679Z,123.13
2019-03-24T18:03:35.622Z,109.63
2019-03-24T18:06:04.477Z,134.87
2019-03-24T18:08:33.326Z,150.47
2019-03-24T18:11:02.233Z,150.57
2019-03-24T18:13:34.120Z,138.23
2019-03-24T18:16:02.996Z,134.73
2019-03-24T18:18:32.123Z,152.37
2019-03-24T18:21:00.975Z,166.37
2019-03-24T18:23:29.842Z,168.87
2019-03-24T18:25:58.749Z,148.93
2019-03-24T18:28:27.602Z,142.77
2019-03-24T18:30:56.566Z,182.23
2019-03-24T18:33:25.485Z,187.83
2019-03-24T18:35:54.340Z,192.87
2019-03-24T18:38:23.210Z,192.87
2019-03-24T18:40:52.137Z,200.60
2019-03-24T18:43:20.987Z,192.40
2019-03-24T18:45:49.832Z,195.13
2019-03-24T18:48:18.741Z,192.77
2019-03-24T18:50:47.596Z,197.17
2019-03-24T18:53:16.470Z,194.23
2019-03-24T18:55:45.388Z,181.67
2019-03-24T18:58:14.246Z,167.77
2019-03-24T19:00:43.088Z,159.23
2019-03-24T19:03:12.023Z,145.20
2019-03-24T19:05:40.891Z,135.17
2019-03-24T19:08:09.764Z,127.63
2019-03-24T19:10:38.672Z,146.80
2019-03-24T19:13:07.523Z,144.47
2019-03-24T19:15:37.563Z,134.17
2019-03-24T19:18:06.686Z,133.97
2019-03-24T19:20:35.544Z,125.20
2019-03-24T19:23:04.400Z,154.03
2019-03-24T19:25:33.410Z,148.20
2019-03-24T19:28:02.250Z,154.17
2019-03-24T19:30:33.991Z,154.07
2019-03-24T19:33:02.913Z,180.03
2019-03-24T19:35:31.774Z,216.93
2019-03-24T19:38:01.137Z,211.33
2019-03-24T19:40:32.248Z,285.90
2019-03-24T19:43:01.073Z,243.63
2019-03-24T19:45:29.929Z,197.23
2019-03-24T19:47:59.064Z,160.47
2019-03-24T19:50:27.930Z,149.27
2019-03-24T19:52:56.778Z,131.40
2019-03-24T19:55:25.665Z,137.43
2019-03-24T19:57:54.525Z,136.13
2019-03-24T20:00:23.382Z,150.17
2019-03-24T20:02:52.296Z,152.70
2019-03-24T20:05:21.142Z,138.60
2019-03-24T20:07:49.982Z,124.27
2019-03-24T20:10:18.932Z,144.63
2019-03-24T20:12:47.786Z,167.87
2019-03-24T20:15:16.825Z,173.07
2019-03-24T20:17:46.549Z,184.73
2019-03-24T20:20:16.096Z,213.63
2019-03-24T20:22:55.538Z,195.70
2019-03-24T20:25:15.500Z,191.57
2019-03-24T20:27:44.357Z,136.73
2019-03-24T20:30:14.517Z,120.07
2019-03-24T20:32:43.529Z,123.97
2019-03-24T20:35:13.965Z,121.17
2019-03-24T20:37:42.825Z,137.50
2019-03-24T20:40:12.422Z,152.80
2019-03-24T20:42:41.281Z,159.43
2019-03-24T20:45:11.252Z,157.57
2019-03-24T20:47:40.129Z,148.83
2019-03-24T20:50:09.487Z,180.03
2019-03-24T20:52:38.340Z,185.80
2019-03-24T20:55:07.776Z,171.57
2019-03-24T20:57:36.625Z,146.80
2019-03-24T21:00:08.098Z,140.23
2019-03-24T21:02:37.146Z,144.17
2019-03-24T21:05:06.851Z,139.37
2019-03-24T21:07:35.738Z,131.10
2019-03-24T21:10:06.650Z,117.83
2019-03-24T21:12:35.794Z,112.50
2019-03-24T21:15:06.963Z,109.50
2019-03-24T21:17:36.055Z,109.33
2019-03-24T21:20:07.436Z,113.83
2019-03-24T21:22:36.329Z,116.73
2019-03-24T21:25:06.826Z,97.87
2019-03-24T21:27:36.026Z,88.67
2019-03-24T21:30:07.154Z,92.97
2019-03-24T21:32:36.081Z,107.57
2019-03-24T21:35:06.722Z,154.90
2019-03-24T21:37:35.561Z,174.73
2019-03-24T21:40:06.559Z,163.70
2019-03-24T21:42:35.432Z,89.00
2019-03-24T21:45:08.621Z,102.67
2019-03-24T21:47:37.553Z,101.70
2019-03-24T21:50:07.804Z,106.23
2019-03-24T21:52:36.754Z,112.83
2019-03-24T21:55:06.664Z,108.73
2019-03-24T21:57:35.497Z,110.40
2019-03-24T22:00:07.557Z,97.60
2019-03-24T22:02:36.561Z,77.23
2019-03-24T22:05:06.135Z,83.27
2019-03-24T22:07:34.979Z,85.10
2019-03-24T22:10:04.999Z,82.10
2019-03-24T22:12:33.841Z,84.97
2019-03-24T22:15:02.696Z,79.60
2019-03-24T22:17:31.606Z,69.10
2019-03-24T22:20:00.467Z,66.73
2019-03-24T22:22:30.195Z,69.30
2019-03-24T22:24:59.155Z,66.40
2019-03-24T22:27:28.002Z,74.20
2019-03-24T22:29:56.865Z,75.43
2019-03-24T22:32:25.828Z,71.73
2019-03-24T22:34:54.715Z,59.20
2019-03-24T22:37:23.581Z,67.13
2019-03-24T22:39:52.638Z,67.77
2019-03-24T22:42:21.725Z,78.33
2019-03-24T22:44:50.592Z,88.97
2019-03-24T22:47:19.481Z,90.10
2019-03-24T22:49:48.330Z,79.73
2019-03-24T22:52:17.236Z,65.47
2019-03-24T22:54:46.139Z,72.37
2019-03-24T22:57:15.003Z,70.87
2019-03-24T22:59:43.842Z,73.60
2019-03-24T23:02:12.734Z,72.87
2019-03-24T23:04:41.590Z,72.87
2019-03-24T23:07:10.444Z,73.73
2019-03-24T23:09:39.330Z,80.33
2019-03-24T23:12:08.189Z,68.03
2019-03-24T23:14:37.038Z,64.27
2019-03-24T23:17:06.053Z,62.17
2019-03-24T23:19:34.901Z,61.73
2019-03-24T23:22:03.779Z,60.70
2019-03-24T23:24:32.719Z,62.83
2019-03-24T23:27:01.573Z,62.37
2019-03-24T23:29:30.416Z,61.03
2019-03-24T23:31:59.328Z,65.00
2019-03-24T23:34:28.211Z,64.87
2019-03-24T23:36:57.098Z,69.93
2019-03-24T23:39:26.025Z,72.77
2019-03-24T23:41:54.863Z,68.93
2019-03-24T23:44:23.701Z,71.13
2019-03-24T23:46:52.587Z,66.33
2019-03-24T23:49:21.420Z,68.70
2019-03-24T23:51:50.271Z,77.57
2019-03-24T23:54:27.356Z,81.20
2019-03-24T23:56:58.897Z,79.53
2019-03-24T23:59:27.745Z,70.30
